createdAt,value
2018-02-13T00:00:33.133Z,12.53
2018-02-13T00:03:01.320Z,15.83
2018-02-13T00:05:28.812Z,15.83
2018-02-13T00:07:56.248Z,18.67
2018-02-13T00:10:23.720Z,19.97
2018-02-13T00:12:51.186Z,17.43
2018-02-13T00:15:18.631Z,17.73
2018-02-13T00:17:46.104Z,21.77
2018-02-13T00:20:13.655Z,13.73
2018-02-13T00:22:47.947Z,14.03
2018-02-13T00:25:15.531Z,17.50
2018-02-13T00:27:42.987Z,16.53
2018-02-13T00:30:10.410Z,12.77
2018-02-13T00:32:38.720Z,12.73
2018-02-13T00:35:06.146Z,15.03
2018-02-13T00:37:34.331Z,22.90
2018-02-13T00:40:01.771Z,20.30
2018-02-13T00:42:29.959Z,15.27
2018-02-13T00:44:57.393Z,19.63
2018-02-13T00:47:24.821Z,18.93
2018-02-13T00:49:52.356Z,11.83
2018-02-13T00:52:19.782Z,18.63
2018-02-13T00:54:48.088Z,15.40
2018-02-13T00:57:15.570Z,17.53
2018-02-13T00:59:42.999Z,20.97
2018-02-13T01:02:10.468Z,15.63
2018-02-13T01:04:37.893Z,14.03
2018-02-13T01:07:05.316Z,19.13
2018-02-13T01:09:32.843Z,18.97
2018-02-13T01:12:00.272Z,14.03
2018-02-13T01:14:27.696Z,20.03
2018-02-13T01:16:55.203Z,17.50
2018-02-13T01:19:22.654Z,20.87
2018-02-13T01:21:50.075Z,17.67
2018-02-13T01:24:17.580Z,14.43
2018-02-13T01:26:44.999Z,10.87
2018-02-13T01:29:12.496Z,16.27
2018-02-13T01:31:39.964Z,15.00
2018-02-13T01:34:07.403Z,14.70
2018-02-13T01:36:34.856Z,15.70
2018-02-13T01:39:02.313Z,14.40
2018-02-13T01:41:29.736Z,15.77
2018-02-13T01:43:57.942Z,17.23
2018-02-13T01:46:25.408Z,15.83
2018-02-13T01:48:52.867Z,18.57
2018-02-13T01:51:20.285Z,15.70
2018-02-13T01:53:48.491Z,17.07
2018-02-13T01:56:15.912Z,21.27
2018-02-13T01:58:44.103Z,12.90
2018-02-13T02:01:11.582Z,16.17
2018-02-13T02:03:39.003Z,16.67
2018-02-13T02:06:07.219Z,17.10
2018-02-13T02:08:34.683Z,17.53
2018-02-13T02:11:02.116Z,17.67
2018-02-13T02:13:29.544Z,22.63
2018-02-13T02:15:57.015Z,17.40
2018-02-13T02:18:24.437Z,19.60
2018-02-13T02:20:51.927Z,16.77
2018-02-13T02:23:19.388Z,22.50
2018-02-13T02:25:46.840Z,15.83
2018-02-13T02:28:14.248Z,16.60
2018-02-13T02:30:41.773Z,15.93
2018-02-13T02:33:09.206Z,16.43
2018-02-13T02:35:36.644Z,13.97
2018-02-13T02:38:04.121Z,20.70
2018-02-13T02:40:31.596Z,21.40
2018-02-13T02:43:05.767Z,16.30
2018-02-13T02:45:33.976Z,21.03
2018-02-13T02:48:01.498Z,15.27
2018-02-13T02:50:29.700Z,21.20
2018-02-13T02:52:57.164Z,14.97
2018-02-13T02:55:24.619Z,17.23
2018-02-13T02:57:52.088Z,13.97
2018-02-13T03:00:19.535Z,17.87
2018-02-13T03:02:46.963Z,17.77
2018-02-13T03:05:14.455Z,13.57
2018-02-13T03:07:41.916Z,15.10
2018-02-13T03:10:09.464Z,11.07
2018-02-13T03:12:36.900Z,18.17
2018-02-13T03:15:04.337Z,20.23
2018-02-13T03:17:31.839Z,21.33
2018-02-13T03:19:59.296Z,17.67
2018-02-13T03:22:26.757Z,15.17
2018-02-13T03:24:54.230Z,14.87
2018-02-13T03:27:21.658Z,14.63
2018-02-13T03:29:49.124Z,15.60
2018-02-13T03:32:16.548Z,20.07
2018-02-13T03:34:44.756Z,21.93
2018-02-13T03:37:12.191Z,19.27
2018-02-13T03:39:39.667Z,15.40
2018-02-13T03:42:07.132Z,19.77
2018-02-13T03:44:34.587Z,19.17
2018-02-13T03:47:02.040Z,19.30
2018-02-13T03:49:29.475Z,15.30
2018-02-13T03:51:56.902Z,16.50
2018-02-13T03:54:25.088Z,17.30
2018-02-13T03:56:53.295Z,15.80
2018-02-13T03:59:20.715Z,18.83
2018-02-13T04:01:48.935Z,17.30
2018-02-13T04:04:16.400Z,15.97
2018-02-13T04:06:43.824Z,18.30
2018-02-13T04:09:11.253Z,20.67
2018-02-13T04:11:39.463Z,16.67
2018-02-13T04:14:06.935Z,13.90
2018-02-13T04:16:34.373Z,20.33
2018-02-13T04:19:03.727Z,18.07
2018-02-13T04:21:31.152Z,22.33
2018-02-13T04:23:58.575Z,17.73
2018-02-13T04:26:26.167Z,22.73
2018-02-13T04:28:53.591Z,16.13
2018-02-13T04:31:21.016Z,19.00
2018-02-13T04:33:48.458Z,18.33
2018-02-13T04:36:15.886Z,16.93
2018-02-13T04:38:43.311Z,16.87
2018-02-13T04:41:11.527Z,15.97
2018-02-13T04:43:38.984Z,20.60
2018-02-13T04:46:06.415Z,17.90
2018-02-13T04:48:33.896Z,17.20
2018-02-13T04:51:01.322Z,18.43
2018-02-13T04:53:29.516Z,15.90
2018-02-13T04:55:56.963Z,15.53
2018-02-13T04:58:24.443Z,18.70
2018-02-13T05:00:51.895Z,22.83
2018-02-13T05:03:19.365Z,18.13
2018-02-13T05:05:46.815Z,24.50
2018-02-13T05:08:14.269Z,22.07
2018-02-13T05:10:41.699Z,20.90
2018-02-13T05:13:09.129Z,20.17
2018-02-13T05:15:36.563Z,27.77
2018-02-13T05:18:04.000Z,17.03
2018-02-13T05:20:31.462Z,17.57
2018-02-13T05:22:58.916Z,18.17
2018-02-13T05:25:26.373Z,23.17
2018-02-13T05:27:53.828Z,17.73
2018-02-13T05:30:21.264Z,24.83
2018-02-13T05:32:48.708Z,17.07
2018-02-13T05:35:16.200Z,19.53
2018-02-13T05:37:43.631Z,22.27
2018-02-13T05:40:11.071Z,19.43
2018-02-13T05:42:39.285Z,20.63
2018-02-13T05:45:06.752Z,16.03
2018-02-13T05:47:34.308Z,26.20
2018-02-13T05:50:01.856Z,21.47
2018-02-13T05:52:29.324Z,22.97
2018-02-13T05:54:56.778Z,20.13
2018-02-13T05:57:24.240Z,20.87
2018-02-13T05:59:51.664Z,17.87
2018-02-13T06:02:19.147Z,19.93
2018-02-13T06:04:46.588Z,20.00
2018-02-13T06:07:14.012Z,19.23
2018-02-13T06:09:41.479Z,23.53
2018-02-13T06:12:08.937Z,19.10
2018-02-13T06:14:36.373Z,22.00
2018-02-13T06:17:03.820Z,13.50
2018-02-13T06:19:31.252Z,21.43
2018-02-13T06:21:58.685Z,22.83
2018-02-13T06:24:26.157Z,19.67
2018-02-13T06:26:54.380Z,16.33
2018-02-13T06:29:21.847Z,17.53
2018-02-13T06:31:49.304Z,25.07
2018-02-13T06:34:16.802Z,22.37
2018-02-13T06:36:44.999Z,24.30
2018-02-13T06:39:12.449Z,26.93
2018-02-13T06:41:39.899Z,22.97
2018-02-13T06:44:08.097Z,21.30
2018-02-13T06:46:35.568Z,23.27
2018-02-13T06:49:03.003Z,21.93
2018-02-13T06:51:30.440Z,18.50
2018-02-13T06:53:58.652Z,23.27
2018-02-13T06:56:26.087Z,21.77
2018-02-13T06:58:53.516Z,24.10
2018-02-13T07:01:21.739Z,22.43
2018-02-13T07:03:49.151Z,24.70
2018-02-13T07:06:17.351Z,24.77
2018-02-13T07:08:44.835Z,25.87
2018-02-13T07:11:12.272Z,29.17
2018-02-13T07:13:39.751Z,26.83
2018-02-13T07:16:07.202Z,23.93
2018-02-13T07:18:34.704Z,28.37
2018-02-13T07:21:02.136Z,25.97
2018-02-13T07:23:29.588Z,24.60
2018-02-13T07:25:57.029Z,22.87
2018-02-13T07:28:24.468Z,17.73
2018-02-13T07:30:51.944Z,22.83
2018-02-13T07:33:19.360Z,26.53
2018-02-13T07:35:47.552Z,18.00
2018-02-13T07:38:15.037Z,29.83
2018-02-13T07:40:42.467Z,30.40
2018-02-13T07:43:09.948Z,22.90
2018-02-13T07:45:37.404Z,20.10
2018-02-13T07:48:04.861Z,25.37
2018-02-13T07:50:32.335Z,18.70
2018-02-13T07:52:59.771Z,17.47
2018-02-13T07:55:27.288Z,10.30
2018-02-13T07:57:55.522Z,13.60
2018-02-13T08:00:22.964Z,18.90
2018-02-13T08:02:50.483Z,10.43
2018-02-13T08:05:17.906Z,14.53
2018-02-13T08:07:46.124Z,18.77
2018-02-13T08:10:13.533Z,11.87
2018-02-13T08:12:41.720Z,16.27
2018-02-13T08:15:09.156Z,12.57
2018-02-13T08:17:37.386Z,14.57
2018-02-13T08:20:04.822Z,13.33
2018-02-13T08:22:32.284Z,11.20
2018-02-13T08:24:59.724Z,11.67
2018-02-13T08:27:27.199Z,14.70
2018-02-13T08:29:54.785Z,11.57
2018-02-13T08:32:22.217Z,11.17
2018-02-13T08:34:49.689Z,12.43
2018-02-13T08:37:17.132Z,7.87
2018-02-13T08:39:44.612Z,16.13
2018-02-13T08:42:12.044Z,8.07
2018-02-13T08:44:39.490Z,11.77
2018-02-13T08:47:06.916Z,15.20
2018-02-13T08:49:35.108Z,15.57
2018-02-13T08:52:02.588Z,12.23
2018-02-13T08:54:30.030Z,12.47
2018-02-13T08:56:57.505Z,14.70
2018-02-13T08:59:24.939Z,9.93
2018-02-13T09:01:52.432Z,15.27
2018-02-13T09:04:19.876Z,18.17
2018-02-13T09:06:47.399Z,14.63
2018-02-13T09:09:14.813Z,7.93
2018-02-13T09:11:42.300Z,10.87
2018-02-13T09:14:10.537Z,9.83
2018-02-13T09:16:37.960Z,10.23
2018-02-13T09:19:05.444Z,10.97
2018-02-13T09:21:32.884Z,11.80
2018-02-13T09:24:00.352Z,9.97
2018-02-13T09:26:27.777Z,10.27
2018-02-13T09:28:55.271Z,10.73
2018-02-13T09:31:22.694Z,12.80
2018-02-13T09:33:50.123Z,7.30
2018-02-13T09:36:17.637Z,7.00
2018-02-13T09:38:45.096Z,12.03
2018-02-13T09:41:12.565Z,11.30
2018-02-13T09:43:40.061Z,16.33
2018-02-13T09:46:07.429Z,10.47
2018-02-13T09:48:35.660Z,12.63
2018-02-13T09:51:03.211Z,10.73
2018-02-13T09:53:30.636Z,12.23
2018-02-13T09:55:58.061Z,9.27
2018-02-13T09:58:25.491Z,10.00
2018-02-13T10:00:52.952Z,15.13
2018-02-13T10:03:20.376Z,18.67
2018-02-13T10:05:47.938Z,12.23
2018-02-13T10:08:15.443Z,7.40
2018-02-13T10:10:42.880Z,12.07
2018-02-13T10:13:10.336Z,11.13
2018-02-13T10:15:37.744Z,8.90
2018-02-13T10:18:05.236Z,8.40
2018-02-13T10:20:32.681Z,9.57
2018-02-13T10:23:00.137Z,10.93
2018-02-13T10:25:27.594Z,10.43
2018-02-13T10:27:55.032Z,11.63
2018-02-13T10:30:22.456Z,11.20
2018-02-13T10:32:49.882Z,10.53
2018-02-13T10:35:17.318Z,13.03
2018-02-13T10:37:44.784Z,8.33
2018-02-13T10:40:12.216Z,10.73
2018-02-13T10:42:39.760Z,11.63
2018-02-13T10:45:07.192Z,10.80
2018-02-13T10:47:34.646Z,9.57
2018-02-13T10:50:02.978Z,11.23
2018-02-13T10:52:30.395Z,12.80
2018-02-13T10:54:57.871Z,10.27
2018-02-13T10:57:25.354Z,12.83
2018-02-13T10:59:52.798Z,6.93
2018-02-13T11:02:22.686Z,8.53
2018-02-13T11:04:50.149Z,11.47
2018-02-13T11:07:17.589Z,10.17
2018-02-13T11:09:45.009Z,13.53
2018-02-13T11:12:13.236Z,12.17
2018-02-13T11:14:40.656Z,9.90
2018-02-13T11:17:08.843Z,9.03
2018-02-13T11:19:36.328Z,12.37
2018-02-13T11:22:03.784Z,6.17
2018-02-13T11:24:31.210Z,11.93
2018-02-13T11:26:59.452Z,10.57
2018-02-13T11:29:27.650Z,9.30
2018-02-13T11:31:55.848Z,8.90
2018-02-13T11:34:24.159Z,10.53
2018-02-13T11:36:51.589Z,12.30
2018-02-13T11:39:19.057Z,11.40
2018-02-13T11:41:46.490Z,9.87
2018-02-13T11:44:13.913Z,12.23
2018-02-13T11:46:42.140Z,6.60
2018-02-13T11:49:09.582Z,7.60
2018-02-13T11:51:37.052Z,8.30
2018-02-13T11:54:04.480Z,8.13
2018-02-13T11:56:32.680Z,9.83
2018-02-13T11:59:01.045Z,13.63
2018-02-13T12:01:28.464Z,9.73
2018-02-13T12:03:56.676Z,5.73
2018-02-13T12:06:24.158Z,14.07
2018-02-13T12:08:51.616Z,11.60
2018-02-13T12:11:19.057Z,12.33
2018-02-13T12:13:46.528Z,7.70
2018-02-13T12:16:13.944Z,6.10
2018-02-13T12:18:41.378Z,9.83
2018-02-13T12:21:08.807Z,8.77
2018-02-13T12:23:37.025Z,7.37
2018-02-13T12:26:04.456Z,7.57
2018-02-13T12:28:31.880Z,7.57
2018-02-13T12:31:00.117Z,8.87
2018-02-13T12:33:27.576Z,8.50
2018-02-13T12:35:55.008Z,8.53
2018-02-13T12:38:22.428Z,11.07
2018-02-13T12:40:50.648Z,6.43
2018-02-13T12:43:18.056Z,5.40
2018-02-13T12:45:46.299Z,12.00
2018-02-13T12:48:13.744Z,5.63
2018-02-13T12:50:41.167Z,9.23
2018-02-13T12:53:08.656Z,10.43
2018-02-13T12:55:36.115Z,6.17
2018-02-13T12:58:03.535Z,8.57
2018-02-13T13:00:31.747Z,8.70
2018-02-13T13:02:59.195Z,13.07
2018-02-13T13:05:26.741Z,4.40
2018-02-13T13:07:54.229Z,6.30
2018-02-13T13:10:21.652Z,9.80
2018-02-13T13:12:49.183Z,6.37
2018-02-13T13:15:17.372Z,4.97
2018-02-13T13:17:45.687Z,5.10
2018-02-13T13:20:13.108Z,6.37
2018-02-13T13:22:41.320Z,11.67
2018-02-13T13:25:08.756Z,12.80
2018-02-13T13:27:36.175Z,6.03
2018-02-13T13:30:03.688Z,5.97
2018-02-13T13:32:31.150Z,4.67
2018-02-13T13:34:58.597Z,5.17
2018-02-13T13:37:26.008Z,5.10
2018-02-13T13:39:54.256Z,4.73
2018-02-13T13:42:21.675Z,7.77
2018-02-13T13:44:49.149Z,5.03
2018-02-13T13:47:16.584Z,7.60
2018-02-13T13:49:44.004Z,6.80
2018-02-13T13:52:12.192Z,4.73
2018-02-13T13:54:40.403Z,15.60
2018-02-13T13:57:07.820Z,12.43
2018-02-13T13:59:36.008Z,3.13
2018-02-13T14:02:03.492Z,4.50
2018-02-13T14:04:30.890Z,5.63
2018-02-13T14:06:59.076Z,3.90
2018-02-13T14:09:27.300Z,5.00
2018-02-13T14:18:41.460Z,2.77
2018-02-13T14:21:09.676Z,3.70
2018-02-13T14:23:37.104Z,6.13
2018-02-13T14:26:04.588Z,5.17
2018-02-13T14:28:32.045Z,9.40
2018-02-13T14:30:59.468Z,4.80
2018-02-13T14:33:26.959Z,4.73
2018-02-13T14:35:54.390Z,9.93
2018-02-13T14:38:21.820Z,17.53
2018-02-13T14:40:50.020Z,6.50
2018-02-13T14:43:17.505Z,7.10
2018-02-13T14:45:44.952Z,11.00
2018-02-13T14:48:12.419Z,5.73
2018-02-13T14:50:39.886Z,5.30
2018-02-13T14:53:07.328Z,3.37
2018-02-13T14:55:34.808Z,4.27
2018-02-13T14:58:02.238Z,5.10
2018-02-13T15:00:29.656Z,4.13
2018-02-13T15:02:57.879Z,4.67
2018-02-13T15:05:25.305Z,7.13
2018-02-13T15:07:53.526Z,5.27
2018-02-13T15:10:20.960Z,5.17
2018-02-13T15:12:48.392Z,2.23
2018-02-13T15:15:16.727Z,4.97
2018-02-13T15:17:49.769Z,4.30
2018-02-13T15:20:17.188Z,7.10
2018-02-13T15:22:44.628Z,3.90
2018-02-13T15:25:12.064Z,3.73
2018-02-13T15:27:39.485Z,3.83
2018-02-13T15:30:06.917Z,5.00
2018-02-13T15:32:35.124Z,8.50
2018-02-13T15:35:02.734Z,5.93
2018-02-13T15:37:30.159Z,7.03
2018-02-13T15:39:57.594Z,3.80
2018-02-13T15:42:25.072Z,11.20
2018-02-13T15:44:52.503Z,5.57
2018-02-13T15:47:19.937Z,6.00
2018-02-13T15:49:47.448Z,4.03
2018-02-13T15:52:14.956Z,3.93
2018-02-13T15:54:43.241Z,5.33
2018-02-13T15:57:11.431Z,5.87
2018-02-13T15:59:38.855Z,7.60
2018-02-13T16:02:06.336Z,3.97
2018-02-13T16:04:34.588Z,4.70
2018-02-13T16:07:02.107Z,4.03
2018-02-13T16:09:29.542Z,9.70
2018-02-13T16:11:57.039Z,6.17
2018-02-13T16:14:24.476Z,5.37
2018-02-13T16:16:51.921Z,6.37
2018-02-13T16:19:19.404Z,3.97
2018-02-13T16:21:46.833Z,3.73
2018-02-13T16:24:14.260Z,7.10
2018-02-13T16:26:42.477Z,5.80
2018-02-13T16:29:09.926Z,9.23
2018-02-13T16:31:37.702Z,4.00
2018-02-13T16:34:05.186Z,3.50
2018-02-13T16:36:32.616Z,5.03
2018-02-13T16:39:00.031Z,6.27
2018-02-13T16:41:28.228Z,6.07
2018-02-13T16:43:55.704Z,6.87
2018-02-13T16:46:23.148Z,4.93
2018-02-13T16:48:50.664Z,4.93
2018-02-13T16:51:18.071Z,4.57
2018-02-13T16:53:45.532Z,7.50
2018-02-13T16:56:12.960Z,7.10
2018-02-13T16:58:40.384Z,8.20
2018-02-13T17:01:07.821Z,5.20
2018-02-13T17:03:35.245Z,10.37
2018-02-13T17:06:02.725Z,10.37
2018-02-13T17:08:30.166Z,8.20
2018-02-13T17:10:57.637Z,5.00
2018-02-13T17:13:25.058Z,7.77
2018-02-13T17:15:52.511Z,3.80
2018-02-13T17:18:20.736Z,6.27
2018-02-13T17:20:48.166Z,4.00
2018-02-13T17:23:15.657Z,6.70
2018-02-13T17:25:43.093Z,6.67
2018-02-13T17:28:10.520Z,7.97
2018-02-13T17:30:37.983Z,6.00
2018-02-13T17:33:05.462Z,10.40
2018-02-13T17:35:32.884Z,5.63
2018-02-13T17:38:01.085Z,11.70
2018-02-13T17:40:28.508Z,7.20
2018-02-13T17:42:56.701Z,6.73
2018-02-13T17:45:24.185Z,5.80
2018-02-13T17:47:51.645Z,8.20
2018-02-13T17:50:19.124Z,6.90
2018-02-13T17:52:46.572Z,7.03
2018-02-13T17:55:14.004Z,7.33
2018-02-13T17:57:41.473Z,5.50
2018-02-13T18:00:08.928Z,8.73
2018-02-13T18:02:36.382Z,7.03
2018-02-13T18:05:03.840Z,5.67
2018-02-13T18:07:31.281Z,6.23
2018-02-13T18:09:58.748Z,4.80
2018-02-13T18:12:26.176Z,5.83
2018-02-13T18:14:54.376Z,9.77
2018-02-13T18:17:21.839Z,6.63
2018-02-13T18:19:49.296Z,5.47
2018-02-13T18:22:16.752Z,8.23
2018-02-13T18:24:44.207Z,4.07
2018-02-13T18:27:11.664Z,5.17
2018-02-13T18:29:39.126Z,3.87
2018-02-13T18:32:06.580Z,6.97
2018-02-13T18:34:34.005Z,5.60
2018-02-13T18:37:02.208Z,6.27
2018-02-13T18:39:29.664Z,7.50
2018-02-13T18:41:57.073Z,4.73
2018-02-13T18:44:25.508Z,6.73
2018-02-13T18:46:52.932Z,9.93
2018-02-13T18:49:20.363Z,5.77
2018-02-13T18:51:47.871Z,7.13
2018-02-13T18:54:15.276Z,9.13
2018-02-13T18:56:42.797Z,7.40
2018-02-13T18:59:10.259Z,6.30
2018-02-13T19:01:37.736Z,5.83
2018-02-13T19:04:05.171Z,9.80
2018-02-13T19:06:32.619Z,7.30
2018-02-13T19:09:00.076Z,5.67
2018-02-13T19:11:27.535Z,5.83
2018-02-13T19:13:55.069Z,8.30
2018-02-13T19:16:22.539Z,13.07
2018-02-13T19:18:49.990Z,7.47
2018-02-13T19:21:17.420Z,12.00
2018-02-13T19:23:44.845Z,11.73
2018-02-13T19:26:12.363Z,11.40
2018-02-13T19:28:39.816Z,7.90
2018-02-13T19:31:07.239Z,7.23
2018-02-13T19:33:35.441Z,5.90
2018-02-13T19:36:02.908Z,8.57
2018-02-13T19:38:30.309Z,7.93
2018-02-13T19:40:57.763Z,3.27
2018-02-13T19:43:25.200Z,6.03
2018-02-13T19:45:52.636Z,7.87
2018-02-13T19:48:20.092Z,7.53
2018-02-13T19:50:47.559Z,9.83
2018-02-13T19:53:15.004Z,6.73
2018-02-13T19:55:42.428Z,12.30
2018-02-13T19:58:09.880Z,8.23
2018-02-13T20:00:38.073Z,8.93
2018-02-13T20:03:05.550Z,9.93
2018-02-13T20:05:32.981Z,6.43
2018-02-13T20:08:00.471Z,6.10
2018-02-13T20:10:27.911Z,10.77
2018-02-13T20:12:55.348Z,8.07
2018-02-13T20:15:22.931Z,7.47
2018-02-13T20:17:50.384Z,11.50
2018-02-13T20:20:17.841Z,9.00
2018-02-13T20:22:45.300Z,11.23
2018-02-13T20:25:12.759Z,8.13
2018-02-13T20:27:40.236Z,6.90
2018-02-13T20:30:07.776Z,15.27
2018-02-13T20:32:35.212Z,7.73
2018-02-13T20:35:02.642Z,9.87
2018-02-13T20:37:30.857Z,9.87
2018-02-13T20:39:58.316Z,6.73
2018-02-13T20:42:25.801Z,8.47
2018-02-13T20:44:53.236Z,12.70
2018-02-13T20:47:20.666Z,9.63
2018-02-13T20:49:48.106Z,8.30
2018-02-13T20:52:16.290Z,7.77
2018-02-13T20:54:44.495Z,9.03
2018-02-13T20:57:11.933Z,9.77
2018-02-13T20:59:39.353Z,9.30
2018-02-13T21:02:06.804Z,7.80
2018-02-13T21:04:34.348Z,7.37
2018-02-13T21:07:01.748Z,9.83
2018-02-13T21:09:29.176Z,10.33
2018-02-13T21:11:56.692Z,10.73
2018-02-13T21:14:24.125Z,10.13
2018-02-13T21:16:51.612Z,8.67
2018-02-13T21:19:19.064Z,7.40
2018-02-13T21:21:46.518Z,8.13
2018-02-13T21:24:13.917Z,8.90
2018-02-13T21:26:41.436Z,11.57
2018-02-13T21:29:08.864Z,13.17
2018-02-13T21:31:37.052Z,9.80
2018-02-13T21:34:04.487Z,8.37
2018-02-13T21:36:32.684Z,11.30
2018-02-13T21:39:00.115Z,7.77
2018-02-13T21:41:28.328Z,8.87
2018-02-13T21:43:55.749Z,9.97
2018-02-13T21:46:23.940Z,8.60
2018-02-13T21:48:51.398Z,9.13
2018-02-13T21:51:18.871Z,9.57
2018-02-13T21:53:46.300Z,10.60
2018-02-13T21:56:14.628Z,6.30
2018-02-13T21:58:42.065Z,8.37
2018-02-13T22:01:09.512Z,7.80
2018-02-13T22:03:36.987Z,10.33
2018-02-13T22:06:04.510Z,7.33
2018-02-13T22:08:32.000Z,7.77
2018-02-13T22:10:59.463Z,13.20
2018-02-13T22:13:26.916Z,8.37
2018-02-13T22:15:54.344Z,5.70
2018-02-13T22:18:21.792Z,11.20
2018-02-13T22:20:50.008Z,9.77
2018-02-13T22:23:17.449Z,9.33
2018-02-13T22:25:44.878Z,9.37
2018-02-13T22:28:13.100Z,6.93
2018-02-13T22:30:40.524Z,11.53
2018-02-13T22:33:07.960Z,9.80
2018-02-13T22:35:36.212Z,12.57
2018-02-13T22:38:03.629Z,10.90
2018-02-13T22:40:31.087Z,9.70
2018-02-13T22:42:58.558Z,12.60
2018-02-13T22:45:26.004Z,10.13
2018-02-13T22:47:53.489Z,7.93
2018-02-13T22:50:20.964Z,15.23
2018-02-13T22:52:48.424Z,14.30
2018-02-13T22:55:15.859Z,13.27
2018-02-13T22:57:43.320Z,12.03
2018-02-13T23:00:10.866Z,7.33
2018-02-13T23:02:38.301Z,8.70
2018-02-13T23:05:05.765Z,6.47
2018-02-13T23:07:33.224Z,11.67
2018-02-13T23:10:00.779Z,7.43
2018-02-13T23:12:28.193Z,8.03
2018-02-13T23:14:55.707Z,9.77
2018-02-13T23:17:23.253Z,6.60
2018-02-13T23:19:50.722Z,10.03
2018-02-13T23:22:18.180Z,6.77
2018-02-13T23:24:45.617Z,9.07
2018-02-13T23:27:13.084Z,8.97
2018-02-13T23:29:40.510Z,11.77
2018-02-13T23:32:08.002Z,13.83
2018-02-13T23:34:35.456Z,10.03
2018-02-13T23:37:02.883Z,7.33
2018-02-13T23:39:31.080Z,7.20
2018-02-13T23:41:58.548Z,7.90
2018-02-13T23:44:26.000Z,9.10
2018-02-13T23:46:53.456Z,6.43
2018-02-13T23:49:20.880Z,6.77
2018-02-13T23:51:49.060Z,8.93
2018-02-13T23:54:16.496Z,9.50
2018-02-13T23:56:44.675Z,9.70
2018-02-13T23:59:12.898Z,12.37
